Time;durP1;ratioP1;P1;durP2;ratioP2;P2;SDS_P1;SDS_P2;PMS_P1;PMS_P2;Temp;Humidity;BMP_temperature;BMP_pressure;BME280_temperature;BME280_humidity;BME280_pressure;Samples;Min_cycle;Max_cycle;Signal;HPM_P1;HPM_P2
2023/11/01 00:01:11;;;;;;;;;;;10.50;99.90;;;10.10;100.00;97079.78;4984166;28;1511;-74
2023/11/01 00:03:38;;;;;;;;;;;10.50;99.90;;;10.14;100.00;97073.53;4984253;28;1596;-73
2023/11/01 00:06:05;;;;;;;;;;;10.60;99.90;;;10.17;100.00;97084.63;4981841;28;1584;-74
2023/11/01 00:08:33;;;;;;;;;;;10.50;99.90;;;10.19;100.00;97082.75;4984437;28;1734;-74
2023/11/01 00:11:00;;;;;;;;;;;10.50;99.90;;;10.19;100.00;97084.53;4985192;28;1391;-74
2023/11/01 00:13:26;;;;;;;;;;;10.60;99.90;;;10.12;100.00;97075.38;4970490;28;1453;-74
2023/11/01 00:15:53;;;;;;;;;;;10.60;99.90;;;10.16;100.00;97074.31;4982083;28;1560;-74
2023/11/01 00:18:21;;;;;;;;;;;10.50;99.90;;;10.16;100.00;97071.72;4981486;28;1911;-74
2023/11/01 00:20:48;;;;;;;;;;;10.50;99.90;;;10.17;100.00;97068.19;4981382;28;1520;-74
2023/11/01 00:23:15;;;;;;;;;;;10.50;99.90;;;10.20;100.00;97070.66;4982596;28;1486;-77
2023/11/01 00:25:42;;;;;;;;;;;10.60;99.90;;;10.16;100.00;97067.38;4986231;28;1939;-75
2023/11/01 00:28:09;;;;;;;;;;;10.60;99.90;;;10.18;100.00;97072.50;4982251;28;1456;-76
2023/11/01 00:30:36;;;;;;;;;;;10.60;99.90;;;10.20;100.00;97062.88;4981318;28;1527;-76
2023/11/01 00:33:03;;;;;;;;;;;10.60;99.90;;;10.21;100.00;97054.16;4982365;28;1872;-76
2023/11/01 00:35:30;;;;;;;;;;;10.60;99.90;;;10.19;100.00;97056.00;4981044;28;2041;-74
2023/11/01 00:37:57;;;;;;;;;;;10.60;99.90;;;10.18;100.00;97060.34;4986492;28;1975;-75
2023/11/01 00:40:24;;;;;;;;;;;10.60;99.90;;;10.21;100.00;97052.41;4984505;28;1851;-76
2023/11/01 00:42:51;;;;;;;;;;;10.70;99.90;;;10.22;100.00;97056.69;4989516;28;1302;-75
2023/11/01 00:45:18;;;;;;;;;;;10.70;99.90;;;10.22;100.00;97051.50;4964970;28;1324;-75
2023/11/01 00:47:44;;;;;;;;;;;10.70;99.90;;;10.31;100.00;97051.97;4985247;28;1328;-75
2023/11/01 00:50:11;;;;;;;;;;;10.60;99.90;;;10.29;100.00;97046.06;4982588;28;1474;-75
2023/11/01 00:52:39;;;;;;;;;;;10.60;99.90;;;10.34;100.00;97041.47;4972618;28;1603;-75
2023/11/01 00:55:07;;;;;;;;;;;10.60;99.90;;;10.24;100.00;97041.91;4989813;28;1736;-75
2023/11/01 00:57:34;;;;;;;;;;;10.70;99.90;;;10.18;100.00;97034.41;4988018;28;1915;-75
2023/11/01 01:00:02;;;;;;;;;;;10.70;99.90;;;10.26;100.00;97034.03;4990119;28;1261;-75
2023/11/01 01:02:29;;;;;;;;;;;10.70;99.90;;;10.22;100.00;97037.72;4984467;28;1417;-75
2023/11/01 01:04:56;;;;;;;;;;;10.70;99.90;;;10.23;100.00;97032.44;4989359;28;1508;-75
2023/11/01 01:07:23;;;;;;;;;;;10.70;99.90;;;10.17;100.00;97034.47;4985579;28;1719;-75
2023/11/01 01:09:50;;;;;;;;;;;10.70;99.90;;;10.29;100.00;97031.34;4970014;28;1828;-75
2023/11/01 01:12:17;;;;;;;;;;;10.70;99.90;;;10.27;100.00;97030.53;4985902;28;1415;-75
2023/11/01 01:14:44;;;;;;;;;;;10.70;99.90;;;10.23;100.00;97026.41;4985835;28;1446;-75
2023/11/01 01:17:11;;;;;;;;;;;10.70;99.90;;;10.23;100.00;97014.28;4987169;28;1894;-75
2023/11/01 01:19:38;;;;;;;;;;;10.70;99.90;;;10.30;100.00;97026.97;4986438;28;1569;-75
2023/11/01 01:22:05;;;;;;;;;;;10.70;99.90;;;10.30;100.00;97014.84;4988632;28;1574;-75
2023/11/01 01:24:32;;;;;;;;;;;10.70;99.90;;;10.23;100.00;97016.88;4986368;28;1699;-75
2023/11/01 01:26:59;;;;;;;;;;;10.70;99.90;;;10.27;100.00;97015.81;4970623;28;1409;-75
2023/11/01 01:29:26;;;;;;;;;;;10.70;99.90;;;10.33;100.00;97009.50;4990299;28;1385;-75
2023/11/01 01:31:53;;;;;;;;;;;10.70;99.90;;;10.27;100.00;97005.44;4987188;28;1887;-76
2023/11/01 01:34:20;;;;;;;;;;;10.70;99.90;;;10.28;100.00;97001.06;4993878;28;1328;-75
2023/11/01 01:36:47;;;;;;;;;;;10.70;99.90;;;10.31;100.00;96995.78;4987993;28;1407;-75
2023/11/01 01:39:13;;;;;;;;;;;10.70;99.90;;;10.25;100.00;96994.28;4988869;28;2017;-75
2023/11/01 01:41:40;;;;;;;;;;;10.70;99.90;;;10.22;100.00;96986.66;4990019;28;1368;-76
2023/11/01 01:44:08;;;;;;;;;;;10.80;99.90;;;10.29;100.00;96987.22;4985914;28;1458;-75
2023/11/01 01:46:35;;;;;;;;;;;10.70;99.90;;;10.27;100.00;96983.84;4986878;28;1604;-75
2023/11/01 01:49:02;;;;;;;;;;;10.70;99.90;;;10.26;100.00;96979.56;4987815;28;1540;-75
2023/11/01 01:51:29;;;;;;;;;;;10.70;99.90;;;10.29;100.00;96973.44;4988257;28;1395;-75
2023/11/01 01:53:57;;;;;;;;;;;10.70;99.90;;;10.25;100.00;96972.72;4984979;28;1439;-75
2023/11/01 01:56:24;;;;;;;;;;;10.70;99.90;;;10.33;100.00;96980.13;4987445;28;1235;-75
2023/11/01 01:58:53;;;;;;;;;;;10.70;99.90;;;10.27;100.00;96973.47;4988221;28;2012;-75
2023/11/01 02:01:21;;;;;;;;;;;10.70;99.90;;;10.24;100.00;96977.06;4968406;28;1419;-75
2023/11/01 02:04:04;;;;;;;;;;;10.70;99.90;;;10.25;100.00;96970.09;4986471;28;1534;-75
2023/11/01 02:06:31;;;;;;;;;;;10.70;99.90;;;10.29;100.00;96969.06;4987021;28;1422;-75
2023/11/01 02:08:58;;;;;;;;;;;10.70;99.90;;;10.25;100.00;96973.53;4984401;28;1383;-75
2023/11/01 02:11:25;;;;;;;;;;;10.80;99.90;;;10.23;100.00;96970.19;4971000;28;1322;-75
2023/11/01 02:13:52;;;;;;;;;;;10.70;99.90;;;10.26;100.00;96966.59;4990051;28;1323;-73
2023/11/01 02:16:19;;;;;;;;;;;10.70;99.90;;;10.22;100.00;96954.72;4973165;28;1219;-75
2023/11/01 02:18:46;;;;;;;;;;;10.70;99.90;;;10.29;100.00;96960.47;4993922;28;1903;-74
2023/11/01 02:21:13;;;;;;;;;;;10.80;99.90;;;10.23;100.00;96954.63;4988373;28;1451;-75
2023/11/01 02:23:42;;;;;;;;;;;10.80;99.90;;;10.19;100.00;96960.88;4986407;28;2111;-75
2023/11/01 02:26:09;;;;;;;;;;;10.80;99.90;;;10.22;100.00;96952.13;4988633;28;1281;-75
2023/11/01 02:28:36;;;;;;;;;;;10.80;99.90;;;10.21;100.00;96950.44;4986099;28;1701;-75
2023/11/01 02:31:03;;;;;;;;;;;10.80;99.90;;;10.29;100.00;96947.50;4987287;28;1579;-75
2023/11/01 02:33:30;;;;;;;;;;;10.70;99.90;;;10.26;100.00;96945.84;4985945;28;1547;-75
2023/11/01 02:36:00;;;;;;;;;;;10.80;99.90;;;10.31;100.00;96933.53;4989519;28;1538;-75
2023/11/01 02:38:27;;;;;;;;;;;10.70;99.90;;;10.24;100.00;96925.19;4988496;28;1996;-74
2023/11/01 02:40:54;;;;;;;;;;;10.80;99.90;;;10.27;100.00;96927.63;4985281;28;1633;-75
2023/11/01 02:43:20;;;;;;;;;;;10.70;99.90;;;10.44;100.00;96937.13;4986659;28;1217;-75
2023/11/01 02:45:47;;;;;;;;;;;10.70;99.90;;;10.38;100.00;96926.25;4985514;28;1391;-75
2023/11/01 02:48:14;;;;;;;;;;;10.80;99.90;;;10.43;100.00;96927.69;4988766;28;1326;-75
2023/11/01 02:50:41;;;;;;;;;;;10.80;99.90;;;10.36;100.00;96920.31;4986851;28;1470;-75
2023/11/01 02:53:11;;;;;;;;;;;10.80;99.90;;;10.41;100.00;96924.34;4987175;28;1439;-75
2023/11/01 02:55:38;;;;;;;;;;;10.80;99.90;;;10.39;100.00;96922.75;4984619;28;1201;-75
2023/11/01 02:58:05;;;;;;;;;;;10.90;99.90;;;10.41;100.00;96924.34;4986795;28;1983;-75
2023/11/01 03:00:33;;;;;;;;;;;10.90;99.90;;;10.43;100.00;96921.66;4987551;28;1428;-75
2023/11/01 03:03:03;;;;;;;;;;;10.90;99.90;;;10.50;100.00;96924.78;4987292;28;1348;-75
2023/11/01 03:05:30;;;;;;;;;;;10.90;99.90;;;10.49;100.00;96917.91;4988455;28;1242;-75
2023/11/01 03:07:57;;;;;;;;;;;10.90;99.90;;;10.44;100.00;96908.59;4985506;28;1727;-75
2023/11/01 03:10:24;;;;;;;;;;;10.90;99.90;;;10.46;100.00;96913.72;4986049;28;1273;-74
2023/11/01 03:12:51;;;;;;;;;;;10.90;99.90;;;10.50;100.00;96907.44;4987056;28;1423;-75
2023/11/01 03:15:18;;;;;;;;;;;10.90;99.90;;;10.57;100.00;96913.16;4986277;28;1477;-75
2023/11/01 03:17:47;;;;;;;;;;;10.90;99.90;;;10.58;100.00;96901.84;4988360;28;1903;-75
2023/11/01 03:20:14;;;;;;;;;;;10.90;99.90;;;10.45;100.00;96902.50;4986280;28;1919;-75
2023/11/01 03:22:41;;;;;;;;;;;10.90;99.90;;;10.44;100.00;96897.38;4984591;28;1368;-75
2023/11/01 03:25:08;;;;;;;;;;;10.90;99.90;;;10.52;100.00;96903.00;5000903;28;1434;-75
2023/11/01 03:27:35;;;;;;;;;;;10.90;99.90;;;10.41;100.00;96900.97;4987501;28;1289;-75
2023/11/01 03:30:03;;;;;;;;;;;10.90;99.90;;;10.36;100.00;96899.56;4985530;28;1361;-75
2023/11/01 03:32:30;;;;;;;;;;;10.80;99.90;;;10.34;100.00;96894.44;4982148;28;1383;-75
2023/11/01 03:34:57;;;;;;;;;;;10.80;99.90;;;10.26;100.00;96894.81;4983011;28;1355;-75
2023/11/01 03:37:24;;;;;;;;;;;10.70;99.90;;;10.25;100.00;96900.09;5000615;28;1483;-75
2023/11/01 03:39:52;;;;;;;;;;;10.70;99.90;;;10.25;100.00;96892.31;4986092;28;1898;-75
2023/11/01 03:42:20;;;;;;;;;;;10.70;99.90;;;10.20;100.00;96895.13;4984103;28;1446;-75
2023/11/01 03:44:49;;;;;;;;;;;10.70;99.90;;;10.15;100.00;96891.94;4982823;28;1495;-75
2023/11/01 03:47:16;;;;;;;;;;;10.70;99.90;;;10.20;100.00;96909.88;4987951;28;1444;-75
2023/11/01 03:49:44;;;;;;;;;;;10.60;99.90;;;10.15;100.00;96897.13;4968236;28;1535;-75
2023/11/01 03:52:11;;;;;;;;;;;10.60;99.90;;;10.10;100.00;96903.47;4983968;28;1540;-75
2023/11/01 03:54:39;;;;;;;;;;;10.60;99.90;;;10.09;100.00;96894.03;4982051;28;1387;-75
2023/11/01 03:57:06;;;;;;;;;;;10.60;99.90;;;10.02;100.00;96888.31;4970456;28;1417;-75
2023/11/01 03:59:33;;;;;;;;;;;10.60;99.90;;;10.04;100.00;96896.84;4987839;28;1906;-75
2023/11/01 04:02:00;;;;;;;;;;;10.50;99.90;;;10.02;100.00;96893.50;4986476;28;1407;-75
2023/11/01 04:04:27;;;;;;;;;;;10.40;99.90;;;9.95;100.00;96886.94;4984587;28;1537;-75
2023/11/01 04:06:54;;;;;;;;;;;10.40;99.90;;;9.86;100.00;96882.22;4983656;28;1385;-74
2023/11/01 04:09:21;;;;;;;;;;;10.30;99.90;;;9.80;100.00;96883.38;4984809;28;1411;-75
2023/11/01 04:11:49;;;;;;;;;;;10.40;99.90;;;9.74;100.00;96881.06;4994364;28;1595;-75
2023/11/01 04:14:16;;;;;;;;;;;10.30;99.90;;;9.69;100.00;96872.69;4987414;28;1373;-75
2023/11/01 04:16:43;;;;;;;;;;;10.20;99.90;;;9.71;100.00;96881.25;4982863;28;1426;-75
2023/11/01 04:19:11;;;;;;;;;;;10.20;99.90;;;9.85;100.00;96881.38;4984022;28;1883;-75
2023/11/01 04:21:38;;;;;;;;;;;10.20;99.90;;;9.85;100.00;96886.56;4979093;28;1396;-75
2023/11/01 04:24:09;;;;;;;;;;;10.20;99.90;;;9.74;100.00;96874.16;4984350;28;1490;-75
2023/11/01 04:26:37;;;;;;;;;;;10.20;99.90;;;9.73;100.00;96875.06;4998563;28;1262;-75
2023/11/01 04:29:04;;;;;;;;;;;10.20;99.90;;;9.77;100.00;96884.38;4985358;28;1265;-76
2023/11/01 04:31:31;;;;;;;;;;;10.20;99.90;;;9.87;100.00;96873.53;4983748;28;1650;-75
2023/11/01 04:33:59;;;;;;;;;;;10.20;99.90;;;9.76;100.00;96879.25;4978161;28;1436;-75
2023/11/01 04:36:26;;;;;;;;;;;10.20;99.90;;;9.80;100.00;96879.00;4969182;28;1329;-75
2023/11/01 04:38:53;;;;;;;;;;;10.30;99.90;;;9.84;100.00;96875.34;4983504;28;1902;-76
2023/11/01 04:41:21;;;;;;;;;;;10.30;99.90;;;9.80;100.00;96873.00;4984144;28;1324;-75
2023/11/01 04:43:48;;;;;;;;;;;10.30;99.90;;;9.76;100.00;96877.53;4984990;28;1403;-75
2023/11/01 04:46:15;;;;;;;;;;;10.30;99.90;;;9.90;100.00;96869.03;4984560;28;1378;-75
2023/11/01 04:48:42;;;;;;;;;;;10.30;99.90;;;9.84;100.00;96877.94;4983915;28;1341;-75
2023/11/01 04:51:09;;;;;;;;;;;10.30;99.90;;;9.89;100.00;96867.34;4983426;28;1485;-75
2023/11/01 04:53:37;;;;;;;;;;;10.30;99.90;;;9.89;100.00;96871.69;4983550;28;1433;-75
2023/11/01 04:56:05;;;;;;;;;;;10.40;99.90;;;9.96;100.00;96873.06;4982557;28;1394;-75
2023/11/01 04:58:35;;;;;;;;;;;10.30;99.90;;;9.94;100.00;96867.09;4983334;28;1906;-75
2023/11/01 05:01:05;;;;;;;;;;;10.40;99.90;;;9.86;100.00;96862.31;4981412;28;1406;-75
2023/11/01 05:03:35;;;;;;;;;;;10.40;99.90;;;9.82;100.00;96866.81;4983350;28;1513;-75
2023/11/01 05:06:03;;;;;;;;;;;10.40;99.90;;;9.89;100.00;96869.09;4987269;28;1329;-75
2023/11/01 05:08:30;;;;;;;;;;;10.40;99.90;;;9.94;100.00;96865.34;4989338;28;1672;-75
2023/11/01 05:10:57;;;;;;;;;;;10.30;99.90;;;9.88;100.00;96857.06;5001866;28;1324;-75
2023/11/01 05:13:24;;;;;;;;;;;10.40;99.90;;;9.95;100.00;96864.44;4967531;28;1254;-77
2023/11/01 05:15:55;;;;;;;;;;;10.40;99.90;;;9.94;100.00;96862.75;4983251;28;1391;-75
2023/11/01 05:18:24;;;;;;;;;;;10.30;99.90;;;9.90;100.00;96853.50;4985424;28;2011;-76
2023/11/01 05:20:51;;;;;;;;;;;10.30;99.90;;;9.81;100.00;96849.59;4983568;28;1547;-75
2023/11/01 05:23:19;;;;;;;;;;;10.30;99.90;;;9.90;100.00;96842.25;4965262;28;1554;-73
2023/11/01 05:25:48;;;;;;;;;;;10.30;99.90;;;9.77;100.00;96849.84;4984141;28;1384;-75
2023/11/01 05:28:16;;;;;;;;;;;10.30;99.90;;;9.73;100.00;96833.59;4984608;28;1404;-76
2023/11/01 05:30:45;;;;;;;;;;;10.30;99.90;;;9.64;100.00;96828.88;4985089;28;1750;-75
2023/11/01 05:33:13;;;;;;;;;;;10.20;99.90;;;9.63;100.00;96846.19;4984094;28;1234;-74
2023/11/01 05:35:42;;;;;;;;;;;10.20;99.90;;;9.65;100.00;96851.31;4971503;28;1407;-75
2023/11/01 05:38:09;;;;;;;;;;;10.20;99.90;;;9.73;100.00;96843.97;4974108;28;1990;-75
2023/11/01 05:40:37;;;;;;;;;;;10.20;99.90;;;9.68;100.00;96848.53;4987966;28;1481;-76
2023/11/01 05:43:04;;;;;;;;;;;10.20;99.90;;;9.69;100.00;96837.25;4987586;28;1415;-75
2023/11/01 05:45:32;;;;;;;;;;;10.10;99.90;;;9.65;100.00;96830.56;4987679;28;1333;-75
2023/11/01 05:48:06;;;;;;;;;;;10.20;99.90;;;9.67;100.00;96833.06;4984447;28;1530;-75
2023/11/01 05:50:36;;;;;;;;;;;10.20;99.90;;;9.75;100.00;96823.16;4987508;28;1414;-76
2023/11/01 05:53:08;;;;;;;;;;;10.10;99.90;;;9.65;100.00;96833.16;4971043;28;1543;-75
2023/11/01 05:55:39;;;;;;;;;;;10.20;99.90;;;9.67;100.00;96820.13;4973413;28;1436;-75
2023/11/01 05:58:28;;;;;;;;;;;10.20;99.90;;;9.67;100.00;96833.94;4987535;28;1914;-75
2023/11/01 06:00:55;;;;;;;;;;;10.20;99.90;;;9.58;100.00;96827.47;4985017;28;1424;-75
2023/11/01 06:03:25;;;;;;;;;;;10.20;99.90;;;9.59;100.00;96825.69;4982312;28;1606;-76
2023/11/01 06:05:57;;;;;;;;;;;10.20;99.90;;;9.64;100.00;96821.09;4986029;28;1233;-75
2023/11/01 06:08:25;;;;;;;;;;;10.20;99.90;;;9.58;100.00;96813.66;4999885;28;1602;-75
2023/11/01 06:10:54;;;;;;;;;;;10.20;99.90;;;9.68;100.00;96825.22;4987942;28;1986;-75
2023/11/01 06:13:21;;;;;;;;;;;10.20;99.90;;;9.65;100.00;96830.56;4970399;28;1407;-75
2023/11/01 06:15:49;;;;;;;;;;;10.20;99.90;;;9.66;100.00;96823.63;4988271;28;1388;-75
2023/11/01 06:18:17;;;;;;;;;;;10.20;99.90;;;9.60;100.00;96828.22;4987476;28;1977;-75
2023/11/01 06:20:44;;;;;;;;;;;10.20;99.90;;;9.63;100.00;96833.22;4987403;28;1407;-75
2023/11/01 06:23:11;;;;;;;;;;;10.20;99.90;;;9.63;100.00;96842.78;4987077;28;1964;-75
2023/11/01 06:25:38;;;;;;;;;;;10.10;99.90;;;9.65;100.00;96838.34;4987486;28;1487;-76
2023/11/01 06:28:05;;;;;;;;;;;10.10;99.90;;;9.58;100.00;96842.16;4984478;28;1466;-75
2023/11/01 06:30:33;;;;;;;;;;;10.10;99.90;;;9.66;100.00;96850.38;4985471;28;1476;-76
2023/11/01 06:33:01;;;;;;;;;;;10.00;99.90;;;9.71;100.00;96843.19;4984806;28;1602;-75
2023/11/01 06:35:29;;;;;;;;;;;10.10;99.90;;;9.63;100.00;96835.00;4973664;28;1322;-75
2023/11/01 06:37:56;;;;;;;;;;;10.10;99.90;;;9.59;100.00;96843.84;4970057;28;1797;-76
2023/11/01 06:40:23;;;;;;;;;;;10.10;99.90;;;9.56;100.00;96849.19;5000848;28;1899;-75
2023/11/01 06:42:50;;;;;;;;;;;10.20;99.90;;;9.59;100.00;96849.00;4988302;28;1437;-75
2023/11/01 06:45:17;;;;;;;;;;;10.20;99.90;;;9.53;100.00;96850.16;4985490;28;1417;-75
2023/11/01 06:47:45;;;;;;;;;;;10.10;99.90;;;9.68;100.00;96848.53;4988188;28;1587;-75
2023/11/01 06:50:12;;;;;;;;;;;10.20;99.90;;;9.73;100.00;96841.38;4984564;28;1454;-75
2023/11/01 06:52:44;;;;;;;;;;;10.30;99.90;;;9.80;100.00;96841.91;4986015;28;1353;-75
2023/11/01 06:55:12;;;;;;;;;;;10.30;99.90;;;9.78;100.00;96846.31;4988261;28;1524;-75
2023/11/01 06:57:39;;;;;;;;;;;10.30;99.90;;;9.72;100.00;96846.66;4971351;28;1444;-75
2023/11/01 07:00:08;;;;;;;;;;;10.30;99.90;;;9.84;100.00;96852.03;4970514;28;1903;-75
2023/11/01 07:02:35;;;;;;;;;;;10.30;99.90;;;9.97;100.00;96847.06;4988450;28;1424;-76
2023/11/01 07:05:06;;;;;;;;;;;10.40;99.90;;;9.87;100.00;96853.63;5003734;28;1243;-76
2023/11/01 07:07:34;;;;;;;;;;;10.30;99.90;;;9.90;100.00;96852.63;4986541;28;1747;-76
2023/11/01 07:10:01;;;;;;;;;;;10.40;99.90;;;9.91;100.00;96857.75;4987654;28;1656;-75
2023/11/01 07:12:28;;;;;;;;;;;10.40;99.90;;;10.08;100.00;96848.25;4987815;28;1290;-75
2023/11/01 07:14:55;;;;;;;;;;;10.50;99.90;;;10.11;100.00;96848.09;4987904;28;1034;-76
2023/11/01 07:17:26;;;;;;;;;;;10.50;99.90;;;10.16;100.00;96843.50;4985969;28;1672;-75
2023/11/01 07:19:56;;;;;;;;;;;10.50;99.90;;;10.25;100.00;96841.25;4970982;28;1985;-75
2023/11/01 07:22:23;;;;;;;;;;;10.60;99.90;;;10.15;100.00;96828.84;5000522;28;1304;-75
2023/11/01 07:24:50;;;;;;;;;;;10.60;99.90;;;10.15;100.00;96834.91;4984329;28;1426;-75
2023/11/01 07:27:17;;;;;;;;;;;10.60;99.90;;;10.20;100.00;96839.84;4985333;28;1258;-76
2023/11/01 07:29:44;;;;;;;;;;;10.60;99.90;;;10.34;100.00;96833.94;4972815;28;1475;-75
2023/11/01 07:32:12;;;;;;;;;;;10.60;99.90;;;10.11;100.00;96833.38;4984576;28;1367;-75
2023/11/01 07:34:40;;;;;;;;;;;10.60;99.90;;;9.94;100.00;96834.25;4987617;28;1153;-76
2023/11/01 07:37:07;;;;;;;;;;;10.50;99.90;;;10.09;100.00;96840.41;4984540;28;1433;-76
2023/11/01 07:39:34;;;;;;;;;;;10.50;99.90;;;10.17;100.00;96833.06;4982814;28;1887;-76
2023/11/01 07:42:01;;;;;;;;;;;10.60;99.90;;;10.24;100.00;96843.91;4982584;28;1371;-76
2023/11/01 07:44:28;;;;;;;;;;;10.60;99.90;;;10.29;100.00;96831.59;4985769;28;1355;-75
2023/11/01 07:46:55;;;;;;;;;;;10.60;99.90;;;10.25;100.00;96824.88;4970550;28;1596;-75
2023/11/01 07:49:22;;;;;;;;;;;10.70;99.90;;;10.17;100.00;96822.69;5002547;28;1633;-75
2023/11/01 07:51:49;;;;;;;;;;;10.70;99.90;;;10.19;100.00;96823.41;4978979;28;1312;-76
2023/11/01 07:54:16;;;;;;;;;;;10.70;99.90;;;10.19;100.00;96810.44;4985102;28;1630;-75
2023/11/01 07:56:43;;;;;;;;;;;10.70;99.90;;;10.31;100.00;96814.19;4984044;28;1342;-76
2023/11/01 07:59:10;;;;;;;;;;;10.80;99.90;;;10.34;100.00;96806.25;4972709;28;1914;-73
2023/11/01 08:01:38;;;;;;;;;;;10.90;99.90;;;10.40;100.00;96803.31;4985953;28;1483;-76
2023/11/01 08:04:05;;;;;;;;;;;10.90;99.90;;;10.45;100.00;96803.91;4983061;28;1388;-76
2023/11/01 08:06:32;;;;;;;;;;;11.00;99.90;;;10.62;100.00;96794.34;4985968;28;1265;-76
2023/11/01 08:08:59;;;;;;;;;;;11.00;99.90;;;10.57;100.00;96789.41;4987599;28;1479;-73
2023/11/01 08:11:26;;;;;;;;;;;11.10;99.90;;;10.70;100.00;96781.81;4982474;28;1527;-73
2023/11/01 08:13:53;;;;;;;;;;;11.10;99.90;;;10.81;100.00;96770.78;4985987;28;1454;-74
2023/11/01 08:16:20;;;;;;;;;;;11.20;99.90;;;10.88;100.00;96769.56;4984409;28;1439;-74
2023/11/01 08:18:48;;;;;;;;;;;11.30;99.90;;;11.02;100.00;96772.19;4981839;28;1920;-74
2023/11/01 08:21:15;;;;;;;;;;;11.40;99.90;;;10.95;100.00;96768.28;4982946;28;1629;-74
2023/11/01 08:23:42;;;;;;;;;;;11.50;99.90;;;11.22;100.00;96763.25;4984501;28;1523;-74
2023/11/01 08:26:14;;;;;;;;;;;11.60;99.90;;;11.28;100.00;96765.47;4982739;28;1904;-74
2023/11/01 08:28:41;;;;;;;;;;;11.70;99.90;;;11.25;100.00;96763.06;4965395;28;1549;-74
2023/11/01 08:31:08;;;;;;;;;;;11.70;99.90;;;11.27;100.00;96761.22;4985487;28;1389;-74
2023/11/01 08:33:35;;;;;;;;;;;11.80;99.90;;;11.39;100.00;96764.84;4986422;28;1386;-74
2023/11/01 08:36:03;;;;;;;;;;;11.80;99.90;;;11.44;100.00;96754.19;4986574;28;1347;-74
2023/11/01 08:38:31;;;;;;;;;;;11.90;99.90;;;11.35;100.00;96752.13;4984413;28;1583;-74
2023/11/01 08:40:58;;;;;;;;;;;11.90;99.90;;;11.41;100.00;96760.41;4983654;28;1914;-75
2023/11/01 08:43:25;;;;;;;;;;;11.90;99.90;;;11.49;100.00;96753.00;4970560;28;1337;-75
2023/11/01 08:45:53;;;;;;;;;;;12.00;99.90;;;11.49;100.00;96747.81;4985081;28;1593;-74
2023/11/01 08:48:20;;;;;;;;;;;12.10;99.90;;;11.58;100.00;96743.81;4966393;28;1299;-74
2023/11/01 08:50:47;;;;;;;;;;;12.10;99.90;;;11.60;100.00;96743.72;4986053;28;1470;-74
2023/11/01 08:53:15;;;;;;;;;;;12.20;99.90;;;11.48;100.00;96750.50;4968855;28;1313;-74
2023/11/01 08:55:42;;;;;;;;;;;12.20;99.90;;;11.59;100.00;96747.25;4982642;28;1399;-74
2023/11/01 08:58:09;;;;;;;;;;;12.20;99.90;;;11.58;100.00;96755.97;4969414;28;1594;-74
2023/11/01 09:00:36;;;;;;;;;;;12.10;99.90;;;11.52;100.00;96751.97;4997356;28;1987;-74
2023/11/01 09:03:13;;;;;;;;;;;12.10;99.90;;;11.58;100.00;96756.78;4979902;28;1457;-74
2023/11/01 09:05:41;;;;;;;;;;;12.10;99.90;;;11.59;100.00;96758.47;4982037;28;1637;-74
2023/11/01 09:08:08;;;;;;;;;;;12.10;99.90;;;11.77;100.00;96755.69;4982764;28;1756;-74
2023/11/01 09:10:35;;;;;;;;;;;12.10;99.90;;;11.68;100.00;96755.34;4971236;28;1398;-74
2023/11/01 09:13:02;;;;;;;;;;;12.20;99.90;;;11.64;100.00;96753.00;4986109;28;1407;-75
2023/11/01 09:15:29;;;;;;;;;;;12.20;99.90;;;11.78;100.00;96752.19;4988478;28;1446;-75
2023/11/01 09:17:56;;;;;;;;;;;12.20;99.90;;;11.74;100.00;96756.72;4986914;28;1447;-74
2023/11/01 09:20:23;;;;;;;;;;;12.20;99.90;;;11.90;100.00;96751.44;4985641;28;1987;-74
2023/11/01 09:22:51;;;;;;;;;;;12.20;99.90;;;11.78;100.00;96749.56;4988210;28;1425;-74
2023/11/01 09:25:18;;;;;;;;;;;12.30;99.90;;;11.90;100.00;96754.88;4988793;28;1740;-75
2023/11/01 09:27:45;;;;;;;;;;;12.30;99.90;;;11.92;100.00;96753.03;4990171;28;1551;-74
2023/11/01 09:30:12;;;;;;;;;;;12.40;99.90;;;12.04;100.00;96754.06;4989049;28;1356;-74
2023/11/01 09:32:39;;;;;;;;;;;12.40;99.90;;;12.26;100.00;96756.16;4984000;28;1595;-75
2023/11/01 09:35:08;;;;;;;;;;;12.50;99.90;;;12.11;100.00;96752.75;4989976;28;1443;-74
2023/11/01 09:37:35;;;;;;;;;;;12.60;99.90;;;12.30;100.00;96756.81;4985590;28;1431;-74
2023/11/01 09:40:03;;;;;;;;;;;12.70;99.90;;;12.52;100.00;96753.66;4985711;28;1985;-74
2023/11/01 09:42:30;;;;;;;;;;;12.80;99.90;;;12.65;100.00;96757.16;4970614;28;1590;-74
2023/11/01 09:45:17;;;;;;;;;;;12.90;99.90;;;12.44;100.00;96754.16;4984770;28;1552;-74
2023/11/01 09:47:44;;;;;;;;;;;12.90;99.90;;;12.50;100.00;96745.16;4988754;28;1554;-74
2023/11/01 09:50:13;;;;;;;;;;;12.90;99.90;;;12.71;100.00;96740.31;4987439;28;1466;-74
2023/11/01 09:52:40;;;;;;;;;;;13.00;99.90;;;12.60;100.00;96737.56;4988152;28;1484;-74
2023/11/01 09:55:08;;;;;;;;;;;13.00;99.90;;;12.85;100.00;96748.06;4971219;28;1518;-74
2023/11/01 09:57:35;;;;;;;;;;;13.10;99.90;;;12.77;100.00;96743.38;4989064;28;1488;-75
2023/11/01 10:00:03;;;;;;;;;;;13.10;99.90;;;12.82;100.00;96735.25;4971022;28;1907;-74
2023/11/01 10:02:30;;;;;;;;;;;13.20;99.90;;;12.59;100.00;96741.09;4987302;28;1658;-74
2023/11/01 10:04:58;;;;;;;;;;;13.10;99.90;;;12.86;100.00;96725.47;4983211;28;1463;-74
2023/11/01 10:07:28;;;;;;;;;;;13.20;99.90;;;12.62;100.00;96720.09;4987944;28;1360;-74
2023/11/01 10:09:56;;;;;;;;;;;13.20;99.90;;;12.49;100.00;96735.66;4971772;28;1626;-74
2023/11/01 10:12:25;;;;;;;;;;;13.20;99.90;;;12.78;100.00;96723.38;5001940;28;1509;-75
2023/11/01 10:14:52;;;;;;;;;;;13.30;99.90;;;12.76;100.00;96714.81;4988029;28;1388;-75
2023/11/01 10:17:19;;;;;;;;;;;13.30;99.90;;;12.67;100.00;96716.25;4981510;28;1485;-74
2023/11/01 10:19:47;;;;;;;;;;;13.30;99.90;;;12.59;100.00;96715.91;4987734;28;1960;-75
2023/11/01 10:22:14;;;;;;;;;;;13.20;99.90;;;12.84;100.00;96706.50;4985693;28;1402;-74
2023/11/01 10:24:42;;;;;;;;;;;13.20;99.90;;;12.74;100.00;96709.69;4985670;28;1132;-75
2023/11/01 10:27:10;;;;;;;;;;;13.20;99.90;;;12.68;100.00;96717.94;4985127;28;1559;-74
2023/11/01 10:29:43;;;;;;;;;;;13.10;99.90;;;12.62;100.00;96702.69;5004479;28;1063;-74
2023/11/01 10:32:12;;;;;;;;;;;13.10;99.90;;;12.80;100.00;96705.88;4985309;28;1639;-74
2023/11/01 10:34:40;;;;;;;;;;;13.10;99.90;;;12.84;100.00;96709.09;4987861;28;1644;-75
2023/11/01 10:37:08;;;;;;;;;;;13.10;99.90;;;12.86;100.00;96704.63;4985546;28;1946;-74
2023/11/01 10:39:39;;;;;;;;;;;13.20;99.90;;;12.81;100.00;96712.75;4984187;28;1974;-75
2023/11/01 10:42:08;;;;;;;;;;;13.30;99.90;;;13.19;100.00;96701.56;4988197;28;1731;-74
2023/11/01 10:44:35;;;;;;;;;;;13.20;99.90;;;13.17;100.00;96696.44;4971481;28;1735;-76
2023/11/01 10:47:03;;;;;;;;;;;13.40;99.90;;;13.38;100.00;96691.56;4985932;28;1547;-76
2023/11/01 10:49:30;;;;;;;;;;;13.50;99.90;;;13.36;100.00;96683.06;4983322;28;1508;-74
2023/11/01 10:51:59;;;;;;;;;;;13.50;99.90;;;13.50;100.00;96687.31;4984923;28;1592;-76
2023/11/01 10:54:28;;;;;;;;;;;13.60;99.90;;;13.51;100.00;96685.53;4984429;28;1247;-74
2023/11/01 10:56:55;;;;;;;;;;;13.70;99.90;;;13.52;100.00;96676.78;4984775;28;1543;-72
2023/11/01 10:59:45;;;;;;;;;;;13.70;99.90;;;13.41;100.00;96654.06;4982578;28;1582;-75
2023/11/01 11:02:17;;;;;;;;;;;13.70;99.90;;;13.17;100.00;96656.53;4973988;28;1767;-74
2023/11/01 11:05:27;;;;;;;;;;;13.70;99.90;;;13.19;100.00;96647.66;4984046;28;1066;-74
2023/11/01 11:07:56;;;;;;;;;;;13.80;99.90;;;13.39;100.00;96648.94;5002030;28;1997;-74
2023/11/01 11:10:32;;;;;;;;;;;13.80;99.90;;;13.30;100.00;96646.16;4977486;28;1455;-73
2023/11/01 11:13:19;;;;;;;;;;;13.80;99.90;;;13.31;100.00;96626.97;4985267;28;1940;-73
2023/11/01 11:16:06;;;;;;;;;;;13.70;99.90;;;13.30;100.00;96620.09;4987227;28;1546;-74
2023/11/01 11:18:43;;;;;;;;;;;13.70;99.90;;;13.34;100.00;96619.78;4985315;28;1603;-74
2023/11/01 11:21:49;;;;;;;;;;;13.80;99.90;;;13.46;100.00;96612.03;4987836;28;1907;-74
2023/11/01 11:24:36;;;;;;;;;;;13.90;99.90;;;13.59;100.00;96603.25;4998510;28;1640;-75